Terminal Aerodrome Forecast
Issued by NWS Milwaukee/Sullivan, WI

Home | Current Version | Previous Version | Text Only | Print | Product List | Glossary On
Versions: 1 2 3 4 5 6 7 8 9 10 11 12 13 14 15 16 17 18 19 20 21 22 23 24 25 26 27 28 29 30 31 32 33 34 35 36 37 38 39 40 41 42 43 44 45 46 47 48 49 50
000
FTUS43 KMKX 270831 AAB
TAFMSN
TAF AMD
KMSN 270831Z 2709/2806 14004KT 4SM SHRA VCTS BKN015 OVC040CB
     FM271100 14005KT 3SM -SHRA VCTS OVC010CB
     FM271800 16007KT P6SM SCT008 OVC010 PROB30 2718/2721 2SM -TSRA
      OVC008CB
     FM272100 19007KT P6SM OVC035
     FM280500 28004KT P6SM BKN120=

USA.gov is the U.S. government's official web portal to all federal, state and local government web resources and services.